createdAt,value
2023-02-11T00:00:13.922Z,4.13
2023-02-11T00:05:17.580Z,7.38
2023-02-11T00:10:21.209Z,6.15
2023-02-11T00:15:26.562Z,6.75
2023-02-11T00:20:30.167Z,6.37
2023-02-11T00:25:33.998Z,4.60
2023-02-11T00:30:39.775Z,4.78
2023-02-11T00:35:43.503Z,7.88
2023-02-11T00:40:47.160Z,7.90
2023-02-11T00:45:52.670Z,10.07
2023-02-11T00:50:56.530Z,11.23
2023-02-11T00:56:00.225Z,9.43
2023-02-11T01:01:06.024Z,8.25
2023-02-11T01:06:14.640Z,9.52
2023-02-11T01:11:38.680Z,7.03
2023-02-11T01:16:44.255Z,6.53
2023-02-11T01:21:47.880Z,9.13
2023-02-11T01:26:51.499Z,11.63
2023-02-11T01:31:56.789Z,13.88
2023-02-11T01:37:01.221Z,10.63
2023-02-11T01:42:05.109Z,12.10
2023-02-11T01:47:10.693Z,9.05
2023-02-11T01:52:18.205Z,7.97
2023-02-11T01:57:24.692Z,9.40
2023-02-11T02:02:37.591Z,8.98
2023-02-11T02:07:48.026Z,7.75
2023-02-11T02:12:51.646Z,10.98
2023-02-11T02:18:10.367Z,9.68
2023-02-11T02:23:36.266Z,10.80
2023-02-11T02:29:14.837Z,8.90
2023-02-11T02:34:28.571Z,9.50
2023-02-11T02:39:36.324Z,17.15
2023-02-11T02:44:40.006Z,10.52
2023-02-11T02:49:45.353Z,11.80
2023-02-11T02:55:25.563Z,8.63
2023-02-11T03:00:36.462Z,9.52
2023-02-11T03:05:50.828Z,13.70
2023-02-11T03:10:56.343Z,13.82
2023-02-11T03:16:03.939Z,7.57
2023-02-11T03:21:10.824Z,7.18
2023-02-11T03:26:22.443Z,13.10
2023-02-11T03:31:34.892Z,8.45
2023-02-11T03:36:45.458Z,9.98
2023-02-11T03:41:50.697Z,8.48
2023-02-11T03:46:56.554Z,12.35
2023-02-11T03:52:04.088Z,10.75
2023-02-11T03:57:07.827Z,10.45
2023-02-11T04:02:11.481Z,9.55
2023-02-11T04:07:16.764Z,8.95
2023-02-11T04:12:20.536Z,9.70
2023-02-11T04:17:24.426Z,7.57
2023-02-11T04:22:30.285Z,8.45
2023-02-11T04:27:34.849Z,11.95
2023-02-11T04:32:38.516Z,9.25
2023-02-11T04:37:43.876Z,6.35
2023-02-11T04:42:47.509Z,6.53
2023-02-11T04:47:51.206Z,8.80
2023-02-11T04:52:56.537Z,9.13
2023-02-11T04:58:00.281Z,9.70
2023-02-11T05:03:03.944Z,9.80
2023-02-11T05:08:09.724Z,7.93
2023-02-11T05:13:13.347Z,8.00
2023-02-11T05:18:16.993Z,8.55
2023-02-11T05:23:22.287Z,7.88
2023-02-11T05:28:26.157Z,10.27
2023-02-11T05:33:29.922Z,9.27
2023-02-11T05:38:35.367Z,8.85
2023-02-11T05:43:39.167Z,9.30
2023-02-11T05:48:42.818Z,7.80
2023-02-11T05:53:48.096Z,7.30
2023-02-11T05:58:51.714Z,10.27
2023-02-11T06:03:55.383Z,6.90
2023-02-11T06:09:00.689Z,9.48
2023-02-11T06:14:04.392Z,8.98
2023-02-11T06:19:08.031Z,10.55
2023-02-11T06:24:13.609Z,9.35
2023-02-11T06:29:17.265Z,7.97
2023-02-11T06:34:20.896Z,8.27
2023-02-11T06:39:26.180Z,8.77
2023-02-11T06:44:29.840Z,7.78
2023-02-11T06:49:33.621Z,6.40
2023-02-11T06:54:39.063Z,8.95
2023-02-11T06:59:42.917Z,7.03
2023-02-11T07:04:46.537Z,8.02
2023-02-11T07:09:52.508Z,8.68
2023-02-11T07:14:57.397Z,7.97
2023-02-11T07:20:01.053Z,5.80
2023-02-11T07:25:07.595Z,8.40
2023-02-11T07:30:12.714Z,11.57
2023-02-11T07:35:16.456Z,6.93
2023-02-11T07:40:22.635Z,7.75
2023-02-11T07:45:26.254Z,10.07
2023-02-11T07:50:30.057Z,9.70
2023-02-11T07:55:35.338Z,6.18
2023-02-11T08:00:39.055Z,4.40
2023-02-11T08:05:42.682Z,10.52
2023-02-11T08:10:48.068Z,7.35
2023-02-11T08:15:51.975Z,6.93
2023-02-11T08:20:55.828Z,10.05
2023-02-11T08:26:04.628Z,7.63
2023-02-11T08:31:09.715Z,5.40
2023-02-11T08:36:15.078Z,5.22
2023-02-11T08:41:20.347Z,5.68
2023-02-11T08:46:24.020Z,6.50
2023-02-11T08:51:29.658Z,11.27
2023-02-11T08:56:34.904Z,5.97
2023-02-11T09:01:39.495Z,7.47
2023-02-11T09:06:43.304Z,5.72
2023-02-11T09:11:48.608Z,5.88
2023-02-11T09:16:52.599Z,8.37
2023-02-11T09:21:57.028Z,7.38
2023-02-11T09:27:02.331Z,5.70
2023-02-11T09:32:08.623Z,5.45
2023-02-11T09:37:13.405Z,10.07
2023-02-11T09:42:44.693Z,8.77
2023-02-11T09:47:51.715Z,6.00
2023-02-11T09:53:01.569Z,7.25
2023-02-11T09:58:12.741Z,5.57
2023-02-11T10:03:45.364Z,6.47
2023-02-11T10:09:00.231Z,6.95
2023-02-11T10:14:20.198Z,5.65
2023-02-11T10:19:46.907Z,4.47
2023-02-11T10:24:54.704Z,7.20
2023-02-11T10:30:05.097Z,6.15
2023-02-11T10:35:17.832Z,5.93
2023-02-11T10:40:23.196Z,3.50
2023-02-11T10:45:32.937Z,5.55
2023-02-11T10:50:36.748Z,5.63
2023-02-11T10:55:50.025Z,5.60
2023-02-11T11:00:59.081Z,3.92
2023-02-11T11:06:04.701Z,2.75
2023-02-11T11:11:10.024Z,4.37
2023-02-11T11:16:24.217Z,8.98
2023-02-11T11:21:34.112Z,5.53
2023-02-11T11:26:43.249Z,3.80
2023-02-11T11:31:56.629Z,2.58
2023-02-11T11:37:01.672Z,2.40
2023-02-11T11:42:23.172Z,4.47
2023-02-11T11:47:40.272Z,4.88
2023-02-11T11:52:52.133Z,4.38
2023-02-11T11:57:55.781Z,2.67
2023-02-11T12:03:31.032Z,2.03
2023-02-11T12:08:49.455Z,2.75
2023-02-11T12:14:10.888Z,2.42
2023-02-11T12:19:45.405Z,3.03
2023-02-11T12:25:06.325Z,4.30
2023-02-11T12:30:27.843Z,2.33
2023-02-11T12:35:40.598Z,3.63
2023-02-11T12:40:54.306Z,2.17
2023-02-11T12:46:13.309Z,3.85
2023-02-11T12:51:27.907Z,2.80
2023-02-11T12:56:38.427Z,3.17
2023-02-11T13:01:44.256Z,2.15
2023-02-11T13:06:53.154Z,2.03
2023-02-11T13:12:03.072Z,2.22
2023-02-11T13:17:15.780Z,2.58
2023-02-11T13:22:24.954Z,3.08
2023-02-11T13:27:41.495Z,1.08
2023-02-11T13:33:18.646Z,1.00
2023-02-11T13:43:30.483Z,1.10
2023-02-11T13:48:36.922Z,1.27
2023-02-11T13:58:53.323Z,3.30
2023-02-11T14:04:20.639Z,6.50
2023-02-11T14:09:44.843Z,1.92
2023-02-11T14:15:19.374Z,2.55
2023-02-11T14:20:44.167Z,2.70
2023-02-11T14:26:00.746Z,2.70
2023-02-11T14:36:29.553Z,3.08
2023-02-11T14:41:39.503Z,3.45
2023-02-11T14:46:48.619Z,4.97
2023-02-11T14:51:53.415Z,3.85
2023-02-11T14:57:12.484Z,2.97
2023-02-11T15:02:24.398Z,4.00
2023-02-11T15:07:28.155Z,4.00
2023-02-11T15:12:31.780Z,4.78
2023-02-11T15:17:37.804Z,5.50
2023-02-11T15:22:41.477Z,5.18
2023-02-11T15:27:50.344Z,3.55
2023-02-11T15:32:57.229Z,3.67
2023-02-11T15:38:01.698Z,5.93
2023-02-11T15:43:06.687Z,6.85
2023-02-11T15:48:16.730Z,5.80
2023-02-11T15:53:26.178Z,2.25
2023-02-11T15:58:29.958Z,4.10
2023-02-11T16:03:35.233Z,2.80
2023-02-11T16:08:38.890Z,3.75
2023-02-11T16:13:47.413Z,2.97
2023-02-11T16:19:04.338Z,2.97
2023-02-11T16:24:18.712Z,3.88
2023-02-11T16:29:26.687Z,3.72
2023-02-11T16:34:32.005Z,2.95
2023-02-11T16:39:35.745Z,3.42
2023-02-11T16:44:39.699Z,2.40
2023-02-11T16:49:45.734Z,3.70
2023-02-11T16:54:49.383Z,2.55
2023-02-11T16:59:53.470Z,4.07
2023-02-11T17:05:01.159Z,1.85
2023-02-11T17:10:04.970Z,3.45
2023-02-11T17:15:09.399Z,3.95
2023-02-11T17:20:16.209Z,1.80
2023-02-11T17:25:20.256Z,2.13
2023-02-11T17:30:24.009Z,1.05
2023-02-11T17:35:29.341Z,2.70
2023-02-11T17:40:33.008Z,0.57
2023-02-11T17:45:41.500Z,1.27
2023-02-11T17:50:46.882Z,1.92
2023-02-11T17:55:50.835Z,3.13
2023-02-11T18:00:58.487Z,3.95
2023-02-11T18:06:05.708Z,5.80
2023-02-11T18:11:11.347Z,2.63
2023-02-11T18:16:14.964Z,2.53
2023-02-11T18:21:22.203Z,3.55
2023-02-11T18:26:26.236Z,3.80
2023-02-11T18:31:30.006Z,2.72
2023-02-11T18:36:35.908Z,1.85
2023-02-11T18:41:39.512Z,2.83
2023-02-11T18:46:43.116Z,3.00
2023-02-11T18:51:48.741Z,2.33
2023-02-11T18:56:52.367Z,5.33
2023-02-11T19:01:55.965Z,2.72
2023-02-11T19:07:01.240Z,1.73
2023-02-11T19:12:05.278Z,2.60
2023-02-11T19:17:09.354Z,1.98
2023-02-11T19:22:14.820Z,1.95
2023-02-11T19:27:18.431Z,2.97
2023-02-11T19:32:22.024Z,3.30
2023-02-11T19:37:27.304Z,3.60
2023-02-11T19:42:30.943Z,1.93
2023-02-11T19:47:34.546Z,1.83
2023-02-11T19:52:40.887Z,3.13
2023-02-11T19:57:44.551Z,2.67
2023-02-11T20:02:48.893Z,2.95
2023-02-11T20:07:54.210Z,3.60
2023-02-11T20:12:57.893Z,1.58
2023-02-11T20:18:01.533Z,4.78
2023-02-11T20:23:06.790Z,3.38
2023-02-11T20:28:10.432Z,3.73
2023-02-11T20:33:14.036Z,5.35
2023-02-11T20:38:19.308Z,3.55
2023-02-11T20:43:23.122Z,3.90
2023-02-11T20:48:26.736Z,2.15
2023-02-11T20:53:32.226Z,5.15
2023-02-11T20:58:36.695Z,2.17
2023-02-11T21:03:40.435Z,2.40
2023-02-11T21:08:47.230Z,3.38
2023-02-11T21:13:50.893Z,4.05
2023-02-11T21:18:54.493Z,3.95
2023-02-11T21:23:59.891Z,4.63
2023-02-11T21:29:03.718Z,2.30
2023-02-11T21:34:08.234Z,4.68
2023-02-11T21:39:13.570Z,2.08
2023-02-11T21:44:17.236Z,2.40
2023-02-11T21:49:20.888Z,3.40
2023-02-11T21:54:26.160Z,2.40
2023-02-11T21:59:30.146Z,3.03
2023-02-11T22:04:33.791Z,2.35
2023-02-11T22:09:39.667Z,3.85
2023-02-11T22:14:43.423Z,3.38
2023-02-11T22:19:47.159Z,2.92
2023-02-11T22:24:52.566Z,3.53
2023-02-11T22:29:56.216Z,2.37
2023-02-11T22:41:11.519Z,6.18
2023-02-11T22:46:16.653Z,3.97
2023-02-11T22:51:22.662Z,5.33
2023-02-11T22:56:53.554Z,4.13
2023-02-11T23:01:57.422Z,3.50
2023-02-11T23:07:01.109Z,3.00
2023-02-11T23:12:06.868Z,4.28
2023-02-11T23:17:10.552Z,3.47
2023-02-11T23:22:14.177Z,3.13
2023-02-11T23:27:19.452Z,3.75
2023-02-11T23:32:23.233Z,4.73
2023-02-11T23:37:26.942Z,2.65
2023-02-11T23:42:32.254Z,3.83
2023-02-11T23:47:36.239Z,4.17
2023-02-11T23:52:39.904Z,4.18
2023-02-11T23:57:45.214Z,6.82
